createdAt,value
2018-12-26T00:02:17.662Z,90.90
2018-12-26T00:04:50.723Z,91.40
2018-12-26T00:07:23.912Z,91.50
2018-12-26T00:09:58.111Z,91.70
2018-12-26T00:12:31.230Z,91.80
2018-12-26T00:15:04.614Z,91.90
2018-12-26T00:17:38.466Z,92.20
2018-12-26T00:20:11.796Z,92.20
2018-12-26T00:22:45.128Z,92.60
2018-12-26T00:25:18.332Z,92.50
2018-12-26T00:27:51.259Z,92.80
2018-12-26T00:30:24.229Z,92.90
2018-12-26T00:32:58.514Z,92.90
2018-12-26T00:35:31.698Z,92.90
2018-12-26T00:38:04.768Z,92.90
2018-12-26T00:40:37.703Z,92.80
2018-12-26T00:43:10.813Z,92.90
2018-12-26T00:45:43.825Z,92.80
2018-12-26T00:48:16.824Z,92.80
2018-12-26T00:50:49.763Z,92.70
2018-12-26T00:53:22.864Z,92.80
2018-12-26T00:55:55.685Z,92.70
2018-12-26T00:58:28.524Z,92.80
2018-12-26T01:01:01.428Z,92.90
2018-12-26T01:03:34.555Z,93.10
2018-12-26T01:06:07.619Z,93.20
2018-12-26T01:08:40.462Z,93.20
2018-12-26T01:11:13.950Z,93.20
2018-12-26T01:13:47.008Z,93.10
2018-12-26T01:16:19.970Z,93.40
2018-12-26T01:18:53.025Z,93.50
2018-12-26T01:21:26.174Z,93.70
2018-12-26T01:23:59.357Z,93.40
2018-12-26T01:26:32.557Z,93.80
2018-12-26T01:29:05.773Z,93.80
2018-12-26T01:31:38.781Z,94.00
2018-12-26T01:34:11.771Z,93.90
2018-12-26T01:36:45.800Z,93.90
2018-12-26T01:39:19.550Z,94.00
2018-12-26T01:41:52.519Z,94.20
2018-12-26T01:44:25.402Z,94.40
2018-12-26T01:46:58.546Z,94.40
2018-12-26T01:49:31.868Z,94.50
2018-12-26T01:52:04.909Z,94.50
2018-12-26T01:54:38.329Z,94.80
2018-12-26T01:57:12.380Z,95.00
2018-12-26T01:59:45.339Z,95.10
2018-12-26T02:02:18.168Z,95.30
2018-12-26T02:04:52.439Z,95.50
2018-12-26T02:07:25.585Z,96.00
2018-12-26T02:09:58.643Z,96.00
2018-12-26T02:12:31.779Z,96.20
2018-12-26T02:15:04.797Z,96.60
2018-12-26T02:17:37.675Z,96.30
2018-12-26T02:20:11.143Z,96.80
2018-12-26T02:22:44.010Z,97.20
2018-12-26T02:25:17.112Z,96.90
2018-12-26T02:27:49.960Z,96.70
2018-12-26T02:30:22.900Z,96.40
2018-12-26T02:32:57.193Z,95.80
2018-12-26T02:35:30.072Z,95.90
2018-12-26T02:38:04.026Z,95.60
2018-12-26T02:40:37.050Z,95.70
2018-12-26T02:43:11.392Z,95.20
2018-12-26T02:45:45.203Z,95.40
2018-12-26T02:48:18.129Z,95.40
2018-12-26T02:50:51.600Z,95.70
2018-12-26T02:53:26.064Z,95.80
2018-12-26T02:55:59.478Z,95.80
2018-12-26T02:58:32.683Z,95.50
2018-12-26T03:01:05.777Z,95.20
2018-12-26T03:03:39.063Z,95.50
2018-12-26T03:06:11.926Z,95.40
2018-12-26T03:08:45.000Z,95.40
2018-12-26T03:11:18.061Z,95.30
2018-12-26T03:13:51.490Z,95.30
2018-12-26T03:16:24.903Z,95.70
2018-12-26T03:18:57.895Z,95.30
2018-12-26T03:21:32.416Z,95.80
2018-12-26T03:24:05.353Z,95.20
2018-12-26T03:26:38.436Z,95.50
2018-12-26T03:29:11.497Z,95.60
2018-12-26T03:31:44.603Z,95.80
2018-12-26T03:34:18.146Z,95.80
2018-12-26T03:36:51.875Z,95.30
2018-12-26T03:39:24.944Z,95.80
2018-12-26T03:41:58.040Z,95.20
2018-12-26T03:44:32.297Z,95.00
2018-12-26T03:47:05.665Z,95.30
2018-12-26T03:49:38.970Z,94.40
2018-12-26T03:52:11.931Z,93.80
2018-12-26T03:54:45.387Z,93.40
2018-12-26T03:57:18.445Z,93.50
2018-12-26T03:59:52.276Z,93.60
2018-12-26T04:02:25.557Z,93.80
2018-12-26T04:04:58.738Z,93.90
2018-12-26T04:07:32.061Z,93.90
2018-12-26T04:10:05.421Z,94.30
2018-12-26T04:12:38.913Z,94.40
2018-12-26T04:15:12.037Z,94.30
2018-12-26T04:17:46.096Z,94.00
2018-12-26T04:20:19.445Z,94.10
2018-12-26T04:22:52.569Z,93.70
2018-12-26T04:25:25.687Z,94.00
2018-12-26T04:28:00.379Z,94.00
2018-12-26T04:30:34.003Z,94.20
2018-12-26T04:33:06.912Z,94.10
2018-12-26T04:35:40.316Z,94.20
2018-12-26T04:38:13.317Z,94.20
2018-12-26T04:40:46.214Z,94.10
2018-12-26T04:43:47.726Z,95.80
2018-12-26T04:46:20.734Z,94.60
2018-12-26T04:48:53.882Z,94.10
2018-12-26T04:51:26.993Z,94.20
2018-12-26T04:54:00.745Z,94.40
2018-12-26T04:56:33.824Z,94.90
2018-12-26T04:59:06.648Z,94.60
2018-12-26T05:01:39.700Z,94.50
2018-12-26T05:04:12.933Z,94.20
2018-12-26T05:06:46.104Z,94.50
2018-12-26T05:09:19.119Z,94.00
2018-12-26T05:11:52.246Z,94.30
2018-12-26T05:14:25.526Z,94.70
2018-12-26T05:17:00.069Z,94.70
2018-12-26T05:19:33.362Z,95.40
2018-12-26T05:22:06.073Z,94.70
2018-12-26T05:24:39.122Z,95.10
2018-12-26T05:27:12.190Z,95.80
2018-12-26T05:29:45.186Z,95.80
2018-12-26T05:32:17.975Z,96.60
2018-12-26T05:34:50.586Z,97.10
2018-12-26T05:37:23.381Z,97.80
2018-12-26T05:39:56.391Z,97.70
2018-12-26T05:42:29.338Z,96.30
2018-12-26T05:45:02.584Z,96.50
2018-12-26T05:47:35.514Z,96.70
2018-12-26T05:50:08.474Z,96.80
2018-12-26T05:52:41.878Z,96.90
2018-12-26T05:55:14.798Z,96.70
2018-12-26T05:57:48.264Z,96.40
2018-12-26T06:00:21.552Z,96.10
2018-12-26T06:02:54.895Z,96.00
2018-12-26T06:05:27.980Z,96.00
2018-12-26T06:08:01.076Z,96.00
2018-12-26T06:10:34.398Z,95.70
2018-12-26T06:13:07.809Z,95.50
2018-12-26T06:15:40.761Z,95.20
2018-12-26T06:18:13.829Z,95.20
2018-12-26T06:20:46.897Z,95.10
2018-12-26T06:23:20.447Z,94.40
2018-12-26T06:25:53.361Z,92.40
2018-12-26T06:28:26.639Z,90.60
2018-12-26T06:30:59.571Z,87.60
2018-12-26T06:33:32.649Z,83.30
2018-12-26T06:36:06.306Z,80.70
2018-12-26T06:38:39.715Z,77.90
2018-12-26T06:41:13.387Z,74.90
2018-12-26T06:43:46.466Z,71.90
2018-12-26T06:46:42.186Z,67.40
2018-12-26T06:49:15.542Z,63.60
2018-12-26T06:51:49.013Z,60.70
2018-12-26T06:54:22.069Z,57.60
2018-12-26T06:56:55.259Z,55.70
2018-12-26T06:59:28.095Z,54.50
2018-12-26T07:02:01.275Z,55.00
2018-12-26T07:04:34.714Z,53.80
2018-12-26T07:07:07.530Z,53.50
2018-12-26T07:09:40.928Z,55.80
2018-12-26T07:12:14.144Z,59.10
2018-12-26T07:14:47.347Z,63.00
2018-12-26T07:17:20.850Z,65.50
2018-12-26T07:19:54.046Z,67.00
2018-12-26T07:22:28.238Z,68.50
2018-12-26T07:25:01.587Z,69.90
2018-12-26T07:27:34.652Z,70.20
2018-12-26T07:30:08.033Z,71.20
2018-12-26T07:32:41.270Z,71.90
2018-12-26T07:35:14.422Z,73.10
2018-12-26T07:37:47.603Z,75.80
2018-12-26T07:40:20.401Z,78.30
2018-12-26T07:42:53.329Z,79.70
2018-12-26T07:45:26.714Z,80.90
2018-12-26T07:47:59.790Z,81.60
2018-12-26T07:50:32.838Z,82.90
2018-12-26T07:53:05.883Z,90.00
2018-12-26T07:55:39.038Z,91.10
2018-12-26T07:58:17.619Z,90.90
2018-12-26T08:00:47.696Z,91.30
2018-12-26T08:03:25.324Z,88.70
2018-12-26T08:06:04.027Z,88.90
2018-12-26T08:08:42.246Z,89.60
2018-12-26T08:11:18.790Z,90.10
2018-12-26T08:13:58.756Z,90.40
2018-12-26T08:16:39.556Z,90.90
2018-12-26T08:19:19.262Z,91.40
2018-12-26T08:21:55.588Z,91.40
2018-12-26T08:24:31.182Z,91.50
2018-12-26T08:27:08.873Z,91.50
2018-12-26T08:29:48.802Z,91.70
2018-12-26T08:32:26.479Z,92.00
2018-12-26T08:35:05.896Z,92.30
2018-12-26T08:37:42.849Z,92.40
2018-12-26T08:40:20.779Z,92.90
2018-12-26T08:42:59.870Z,93.20
2018-12-26T08:45:38.237Z,93.30
2018-12-26T08:48:21.781Z,93.70
2018-12-26T08:51:03.265Z,93.90
2018-12-26T08:53:41.179Z,94.00
2018-12-26T08:56:18.391Z,94.10
2018-12-26T08:58:58.443Z,94.40
2018-12-26T09:01:50.603Z,94.40
2018-12-26T09:04:29.912Z,94.60
2018-12-26T09:07:11.184Z,94.60
2018-12-26T09:09:47.437Z,94.80
2018-12-26T09:12:27.260Z,95.00
2018-12-26T09:18:11.668Z,95.20
2018-12-26T09:20:45.192Z,95.30
2018-12-26T09:23:18.313Z,95.00
2018-12-26T09:26:00.179Z,95.10
2018-12-26T09:28:33.368Z,95.30
2018-12-26T09:31:06.797Z,95.30
2018-12-26T09:33:40.814Z,95.10
2018-12-26T09:36:13.811Z,95.20
2018-12-26T09:38:47.281Z,94.90
2018-12-26T09:41:20.280Z,94.90
2018-12-26T09:43:53.786Z,95.30
2018-12-26T09:46:26.911Z,95.70
2018-12-26T09:49:00.177Z,95.20
2018-12-26T09:51:33.155Z,95.20
2018-12-26T09:54:06.160Z,95.30
2018-12-26T09:56:39.381Z,94.30
2018-12-26T09:59:12.729Z,94.80
2018-12-26T10:01:45.974Z,94.90
2018-12-26T10:04:19.343Z,94.60
2018-12-26T10:06:52.456Z,94.50
2018-12-26T10:09:30.182Z,94.50
2018-12-26T10:12:03.472Z,94.90
2018-12-26T10:14:36.335Z,94.50
2018-12-26T10:17:09.597Z,94.60
2018-12-26T10:19:42.933Z,94.40
2018-12-26T10:22:16.319Z,94.50
2018-12-26T10:24:50.956Z,94.20
2018-12-26T10:27:24.189Z,93.50
2018-12-26T10:29:57.564Z,93.20
2018-12-26T10:32:31.007Z,92.70
2018-12-26T10:35:04.496Z,92.20
2018-12-26T10:37:38.070Z,92.00
2018-12-26T10:40:11.743Z,92.30
2018-12-26T10:42:46.064Z,91.90
2018-12-26T10:45:19.496Z,91.80
2018-12-26T10:47:52.781Z,92.20
2018-12-26T10:50:26.583Z,91.80
2018-12-26T10:53:02.904Z,91.90
2018-12-26T10:55:36.617Z,91.90
2018-12-26T10:58:10.143Z,92.20
2018-12-26T11:00:43.880Z,92.20
2018-12-26T11:03:17.510Z,92.50
2018-12-26T11:05:50.719Z,92.20
2018-12-26T11:08:24.328Z,92.50
2018-12-26T11:10:58.270Z,92.50
2018-12-26T11:13:31.759Z,92.60
2018-12-26T11:16:05.172Z,92.70
2018-12-26T11:18:41.601Z,92.50
2018-12-26T11:21:18.098Z,92.50
2018-12-26T11:23:51.378Z,92.50
2018-12-26T11:26:24.476Z,92.20
2018-12-26T11:28:57.572Z,91.40
2018-12-26T11:31:30.653Z,90.50
2018-12-26T11:34:06.326Z,90.40
2018-12-26T11:36:41.627Z,89.60
2018-12-26T11:39:15.751Z,89.00
2018-12-26T11:41:51.158Z,90.10
2018-12-26T11:44:27.673Z,90.80
2018-12-26T11:47:02.038Z,91.10
2018-12-26T11:49:36.152Z,91.20
2018-12-26T11:52:10.445Z,91.70
2018-12-26T11:54:44.431Z,92.40
2018-12-26T11:57:18.343Z,92.60
2018-12-26T11:59:52.342Z,92.90
2018-12-26T12:02:26.140Z,93.10
2018-12-26T12:05:00.061Z,93.30
2018-12-26T12:07:34.126Z,93.10
2018-12-26T12:10:11.319Z,92.90
2018-12-26T12:12:45.106Z,93.00
2018-12-26T12:15:19.114Z,93.00
2018-12-26T12:17:52.256Z,93.10
2018-12-26T12:20:26.049Z,92.90
2018-12-26T12:22:59.785Z,92.70
2018-12-26T12:25:34.915Z,92.90
2018-12-26T12:28:08.773Z,93.00
2018-12-26T12:30:44.107Z,92.90
2018-12-26T12:33:19.925Z,92.90
2018-12-26T12:35:57.575Z,92.50
2018-12-26T12:38:31.235Z,92.70
2018-12-26T12:41:04.704Z,92.70
2018-12-26T12:43:38.371Z,92.80
2018-12-26T12:46:12.038Z,93.00
2018-12-26T12:48:45.970Z,92.40
2018-12-26T12:51:19.588Z,92.50
2018-12-26T12:53:54.681Z,92.10
2018-12-26T12:56:28.435Z,91.90
2018-12-26T12:59:02.464Z,91.80
2018-12-26T13:01:36.199Z,91.80
2018-12-26T13:04:12.188Z,91.80
2018-12-26T13:06:46.457Z,92.30
2018-12-26T13:09:24.861Z,92.50
2018-12-26T13:12:01.323Z,93.00
2018-12-26T13:14:35.112Z,92.60
2018-12-26T13:17:09.870Z,92.60
2018-12-26T13:19:43.712Z,92.80
2018-12-26T13:22:20.091Z,93.10
2018-12-26T13:24:53.593Z,92.90
2018-12-26T13:27:27.583Z,93.20
2018-12-26T13:30:02.267Z,93.40
2018-12-26T13:32:36.677Z,94.00
2018-12-26T13:35:10.240Z,93.50
2018-12-26T13:37:47.133Z,93.80
2018-12-26T13:40:21.132Z,93.60
2018-12-26T13:42:56.934Z,93.40
2018-12-26T13:45:31.399Z,93.20
2018-12-26T13:48:05.534Z,93.00
2018-12-26T13:50:39.672Z,93.30
2018-12-26T13:53:12.907Z,93.20
2018-12-26T13:55:46.633Z,93.60
2018-12-26T13:58:20.371Z,93.90
2018-12-26T14:00:54.747Z,94.10
2018-12-26T14:03:28.890Z,94.30
2018-12-26T14:06:05.152Z,94.60
2018-12-26T14:08:38.354Z,94.70
2018-12-26T14:11:14.411Z,95.00
2018-12-26T14:13:48.470Z,94.80
2018-12-26T14:16:21.539Z,94.80
2018-12-26T14:18:57.359Z,95.20
2018-12-26T14:21:31.110Z,95.20
2018-12-26T14:24:04.479Z,95.20
2018-12-26T14:26:38.324Z,95.30
2018-12-26T14:29:12.356Z,95.20
2018-12-26T14:31:46.023Z,95.10
2018-12-26T14:34:19.791Z,95.20
2018-12-26T14:39:56.946Z,95.60
2018-12-26T14:42:31.282Z,95.60
2018-12-26T14:45:08.161Z,95.60
2018-12-26T14:47:42.892Z,95.70
2018-12-26T14:50:17.072Z,95.80
2018-12-26T14:52:53.391Z,95.90
2018-12-26T14:55:27.645Z,96.10
2018-12-26T14:58:01.413Z,96.40
2018-12-26T15:00:35.542Z,96.00
2018-12-26T15:03:09.494Z,96.20
2018-12-26T15:05:43.082Z,96.30
2018-12-26T15:08:17.121Z,96.10
2018-12-26T15:10:50.918Z,96.00
2018-12-26T15:13:24.739Z,96.10
2018-12-26T15:15:58.668Z,96.10
2018-12-26T15:18:31.932Z,96.10
2018-12-26T15:21:05.802Z,95.90
2018-12-26T15:23:39.601Z,95.70
2018-12-26T15:26:12.888Z,95.40
2018-12-26T15:28:47.180Z,95.60
2018-12-26T15:31:22.787Z,95.40
2018-12-26T15:34:00.546Z,95.60
2018-12-26T15:36:38.358Z,96.00
2018-12-26T15:39:15.310Z,96.30
2018-12-26T15:41:49.027Z,96.50
2018-12-26T15:44:23.872Z,96.70
2018-12-26T15:46:58.312Z,96.80
2018-12-26T15:49:33.605Z,97.00
2018-12-26T15:52:09.874Z,96.90
2018-12-26T15:54:43.556Z,96.70
2018-12-26T15:57:17.015Z,96.50
2018-12-26T15:59:51.236Z,96.30
2018-12-26T16:02:26.457Z,96.00
2018-12-26T16:05:01.927Z,96.30
2018-12-26T16:07:38.875Z,95.80
2018-12-26T16:10:14.957Z,95.60
2018-12-26T16:12:49.264Z,95.30
2018-12-26T16:15:29.054Z,95.50
2018-12-26T16:18:17.345Z,95.50
2018-12-26T16:20:58.398Z,95.40
2018-12-26T16:23:35.960Z,95.00
2018-12-26T16:26:11.718Z,95.00
2018-12-26T16:28:47.529Z,94.70
2018-12-26T16:31:21.448Z,94.40
2018-12-26T16:33:56.041Z,95.40
2018-12-26T16:36:33.004Z,94.10
2018-12-26T16:39:09.703Z,93.90
2018-12-26T16:41:45.349Z,94.10
2018-12-26T16:44:20.703Z,94.10
2018-12-26T16:46:54.115Z,94.20
2018-12-26T16:49:32.874Z,95.60
2018-12-26T16:52:13.377Z,94.40
2018-12-26T16:54:47.807Z,94.40
2018-12-26T16:57:21.669Z,94.50
2018-12-26T16:59:55.248Z,94.50
2018-12-26T17:02:33.080Z,94.60
2018-12-26T17:05:14.201Z,94.40
2018-12-26T17:07:48.656Z,93.90
2018-12-26T17:10:32.950Z,94.10
2018-12-26T17:13:06.409Z,93.90
2018-12-26T17:15:43.803Z,94.20
2018-12-26T17:18:18.761Z,93.90
2018-12-26T17:20:56.242Z,94.10
2018-12-26T17:23:32.643Z,94.50
2018-12-26T17:26:06.816Z,94.40
2018-12-26T17:28:44.006Z,95.00
2018-12-26T17:31:19.258Z,94.90
2018-12-26T17:34:00.984Z,95.50
2018-12-26T17:36:41.004Z,95.70
2018-12-26T17:39:17.775Z,95.50
2018-12-26T17:41:54.175Z,95.60
2018-12-26T17:44:27.933Z,95.50
2018-12-26T17:47:03.504Z,95.10
2018-12-26T17:49:39.775Z,95.00
2018-12-26T17:52:20.176Z,95.10
2018-12-26T17:55:59.192Z,95.10
2018-12-26T17:58:42.311Z,94.90
2018-12-26T18:01:39.980Z,94.40
2018-12-26T18:04:16.440Z,94.30
2018-12-26T18:06:54.084Z,94.30
2018-12-26T18:09:28.261Z,94.60
2018-12-26T18:12:11.767Z,94.60
2018-12-26T18:15:01.325Z,94.30
2018-12-26T18:17:35.596Z,94.20
2018-12-26T18:20:17.808Z,93.80
2018-12-26T18:22:52.347Z,93.70
2018-12-26T18:25:29.761Z,93.40
2018-12-26T18:28:11.819Z,93.60
2018-12-26T18:30:48.971Z,93.60
2018-12-26T18:33:25.074Z,94.00
2018-12-26T18:36:18.555Z,93.70
2018-12-26T18:38:53.938Z,93.60
2018-12-26T18:41:32.883Z,94.30
2018-12-26T18:46:38.288Z,93.90
2018-12-26T18:49:12.286Z,93.60
2018-12-26T18:51:46.249Z,94.10
2018-12-26T18:54:20.602Z,94.20
2018-12-26T18:56:54.763Z,94.10
2018-12-26T18:59:30.915Z,94.30
2018-12-26T19:02:08.324Z,94.00
2018-12-26T19:04:46.742Z,94.00
2018-12-26T19:07:26.501Z,93.60
2018-12-26T19:10:02.196Z,93.50
2018-12-26T19:12:36.659Z,93.50
2018-12-26T19:15:14.268Z,93.50
2018-12-26T19:17:51.030Z,93.00
2018-12-26T19:20:24.883Z,93.20
2018-12-26T19:23:00.458Z,92.90
2018-12-26T19:25:37.404Z,93.10
2018-12-26T19:28:13.242Z,92.60
2018-12-26T19:30:47.508Z,92.80
2018-12-26T19:33:22.390Z,93.00
2018-12-26T19:35:56.374Z,92.80
2018-12-26T19:38:29.695Z,92.60
2018-12-26T19:41:04.889Z,92.70
2018-12-26T19:43:42.003Z,92.70
2018-12-26T19:46:15.897Z,92.40
2018-12-26T19:48:52.315Z,92.00
2018-12-26T19:51:26.221Z,92.10
2018-12-26T19:54:00.317Z,92.10
2018-12-26T19:56:34.984Z,92.20
2018-12-26T19:59:08.914Z,92.60
2018-12-26T20:01:48.361Z,92.30
2018-12-26T20:04:19.323Z,92.40
2018-12-26T20:06:53.341Z,92.50
2018-12-26T20:09:27.048Z,92.80
2018-12-26T20:12:08.033Z,92.10
2018-12-26T20:14:42.539Z,92.50
2018-12-26T20:17:17.445Z,92.00
2018-12-26T20:19:51.490Z,92.40
2018-12-26T20:22:25.394Z,92.30
2018-12-26T20:25:01.326Z,92.30
2018-12-26T20:27:34.950Z,91.60
2018-12-26T20:30:10.517Z,92.60
2018-12-26T20:32:44.126Z,92.30
2018-12-26T20:35:19.629Z,92.90
2018-12-26T20:37:53.444Z,92.20
2018-12-26T20:40:28.714Z,92.80
2018-12-26T20:43:04.951Z,92.70
2018-12-26T20:45:39.493Z,92.60
2018-12-26T20:48:12.954Z,92.50
2018-12-26T20:50:46.639Z,92.80
2018-12-26T20:53:20.609Z,92.50
2018-12-26T20:55:56.760Z,92.60
2018-12-26T20:58:30.160Z,92.30
2018-12-26T21:01:03.715Z,92.10
2018-12-26T21:03:38.426Z,92.60
2018-12-26T21:06:11.497Z,92.60
2018-12-26T21:08:45.212Z,92.30
2018-12-26T21:11:19.272Z,92.50
2018-12-26T21:13:52.693Z,92.30
2018-12-26T21:16:26.401Z,92.60
2018-12-26T21:19:00.303Z,92.40
2018-12-26T21:21:33.341Z,92.30
2018-12-26T21:24:06.677Z,92.30
2018-12-26T21:26:39.964Z,92.10
2018-12-26T21:29:13.579Z,91.90
2018-12-26T21:31:47.215Z,91.90
2018-12-26T21:34:20.625Z,92.00
2018-12-26T21:36:54.340Z,92.50
2018-12-26T21:39:29.127Z,92.20
2018-12-26T21:42:02.512Z,92.40
2018-12-26T21:44:35.834Z,92.70
2018-12-26T21:47:08.818Z,91.60
2018-12-26T21:49:41.832Z,92.00
2018-12-26T21:52:14.875Z,92.50
2018-12-26T21:54:48.038Z,92.50
2018-12-26T21:57:21.337Z,92.40
2018-12-26T21:59:54.499Z,92.00
2018-12-26T22:02:27.637Z,91.80
2018-12-26T22:05:02.305Z,92.40
2018-12-26T22:07:35.689Z,91.90
2018-12-26T22:10:08.960Z,92.00
2018-12-26T22:12:41.870Z,92.00
2018-12-26T22:15:14.815Z,92.00
2018-12-26T22:17:47.852Z,91.80
2018-12-26T22:20:20.813Z,91.60
2018-12-26T22:22:54.324Z,91.60
2018-12-26T22:25:27.661Z,91.60
2018-12-26T22:28:00.854Z,91.50
2018-12-26T22:30:34.272Z,91.10
2018-12-26T22:33:07.282Z,91.10
2018-12-26T22:35:40.486Z,91.80
2018-12-26T22:38:13.878Z,91.50
2018-12-26T22:40:46.973Z,92.00
2018-12-26T22:43:21.233Z,91.20
2018-12-26T22:45:54.545Z,91.40
2018-12-26T22:48:27.790Z,91.50
2018-12-26T22:51:00.934Z,91.80
2018-12-26T22:53:33.795Z,91.40
2018-12-26T22:56:06.762Z,91.60
2018-12-26T22:58:39.717Z,91.20
2018-12-26T23:01:12.536Z,91.30
2018-12-26T23:03:45.663Z,91.10
2018-12-26T23:06:18.737Z,91.00
2018-12-26T23:08:51.708Z,90.60
2018-12-26T23:11:24.682Z,90.40
2018-12-26T23:13:57.438Z,90.20
2018-12-26T23:16:30.864Z,90.20
2018-12-26T23:19:03.730Z,90.20
2018-12-26T23:21:36.632Z,89.60
2018-12-26T23:24:09.525Z,90.00
2018-12-26T23:26:42.744Z,90.30
2018-12-26T23:29:15.733Z,90.30
2018-12-26T23:31:48.413Z,90.20
2018-12-26T23:34:21.329Z,90.40
2018-12-26T23:36:54.158Z,90.10
2018-12-26T23:39:27.602Z,90.00
2018-12-26T23:42:00.394Z,89.30
2018-12-26T23:44:33.251Z,90.20
2018-12-26T23:47:06.917Z,88.90
2018-12-26T23:49:39.790Z,88.60
2018-12-26T23:52:13.202Z,88.90
2018-12-26T23:54:46.254Z,88.60
2018-12-26T23:57:19.122Z,90.00
2018-12-26T23:59:52.300Z,87.80
